sensor_id;sensor_type;location;lat;lon;timestamp;pressure;altitude;pressure_sealevel;temperature;humidity
56070;BME280;41944;52.078;-0.058;2023-06-22T00:02:07;101558.74;;;19.51;84.92
56070;BME280;41944;52.078;-0.058;2023-06-22T00:04:33;101557.09;;;19.42;85.30
56070;BME280;41944;52.078;-0.058;2023-06-22T00:07:01;101559.85;;;19.30;85.92
56070;BME280;41944;52.078;-0.058;2023-06-22T00:09:29;101560.54;;;19.32;86.05
56070;BME280;41944;52.078;-0.058;2023-06-22T00:11:55;101560.18;;;19.23;86.47
56070;BME280;41944;52.078;-0.058;2023-06-22T00:14:22;101558.72;;;19.28;86.10
56070;BME280;41944;52.078;-0.058;2023-06-22T00:16:49;101565.04;;;19.38;85.47
56070;BME280;41944;52.078;-0.058;2023-06-22T00:19:16;101568.61;;;19.27;86.02
56070;BME280;41944;52.078;-0.058;2023-06-22T00:21:43;101574.93;;;19.19;86.46
56070;BME280;41944;52.078;-0.058;2023-06-22T00:24:11;101576.59;;;19.14;86.89
56070;BME280;41944;52.078;-0.058;2023-06-22T00:26:38;101573.88;;;19.06;87.13
56070;BME280;41944;52.078;-0.058;2023-06-22T00:29:05;101572.72;;;19.03;87.19
56070;BME280;41944;52.078;-0.058;2023-06-22T00:31:32;101574.79;;;19.02;87.19
56070;BME280;41944;52.078;-0.058;2023-06-22T00:33:59;101573.83;;;18.97;87.45
56070;BME280;41944;52.078;-0.058;2023-06-22T00:36:26;101573.05;;;18.92;87.90
56070;BME280;41944;52.078;-0.058;2023-06-22T00:38:53;101572.24;;;18.80;88.35
56070;BME280;41944;52.078;-0.058;2023-06-22T00:41:20;101573.37;;;18.74;88.60
56070;BME280;41944;52.078;-0.058;2023-06-22T00:43:47;101574.17;;;18.69;88.87
56070;BME280;41944;52.078;-0.058;2023-06-22T00:46:14;101575.99;;;18.66;89.20
56070;BME280;41944;52.078;-0.058;2023-06-22T00:48:41;101576.98;;;18.67;89.06
56070;BME280;41944;52.078;-0.058;2023-06-22T00:51:08;101577.10;;;18.67;89.09
56070;BME280;41944;52.078;-0.058;2023-06-22T00:53:35;101579.34;;;18.68;88.76
56070;BME280;41944;52.078;-0.058;2023-06-22T00:56:03;101580.47;;;18.82;87.73
56070;BME280;41944;52.078;-0.058;2023-06-22T00:58:31;101581.48;;;18.72;88.32
56070;BME280;41944;52.078;-0.058;2023-06-22T01:00:59;101583.34;;;18.59;89.13
56070;BME280;41944;52.078;-0.058;2023-06-22T01:03:26;101584.08;;;18.53;89.40
56070;BME280;41944;52.078;-0.058;2023-06-22T01:05:56;101580.08;;;18.53;89.56
56070;BME280;41944;52.078;-0.058;2023-06-22T01:08:31;101579.38;;;18.43;89.96
56070;BME280;41944;52.078;-0.058;2023-06-22T01:11:07;101583.62;;;18.42;89.81
56070;BME280;41944;52.078;-0.058;2023-06-22T01:13:39;101584.18;;;18.34;90.18
56070;BME280;41944;52.078;-0.058;2023-06-22T01:16:12;101588.26;;;18.45;89.43
56070;BME280;41944;52.078;-0.058;2023-06-22T01:18:43;101587.84;;;18.44;89.51
56070;BME280;41944;52.078;-0.058;2023-06-22T01:21:16;101591.77;;;18.66;88.12
56070;BME280;41944;52.078;-0.058;2023-06-22T01:23:55;101595.01;;;18.59;87.64
56070;BME280;41944;52.078;-0.058;2023-06-22T01:26:32;101592.63;;;18.43;88.69
56070;BME280;41944;52.078;-0.058;2023-06-22T01:29:04;101587.70;;;18.32;89.61
56070;BME280;41944;52.078;-0.058;2023-06-22T01:31:32;101586.60;;;18.20;90.51
56070;BME280;41944;52.078;-0.058;2023-06-22T01:34:03;101592.01;;;18.17;90.38
56070;BME280;41944;52.078;-0.058;2023-06-22T01:36:32;101591.74;;;18.17;90.63
56070;BME280;41944;52.078;-0.058;2023-06-22T01:39:01;101588.23;;;18.34;89.45
56070;BME280;41944;52.078;-0.058;2023-06-22T01:41:29;101588.43;;;18.28;89.68
56070;BME280;41944;52.078;-0.058;2023-06-22T01:43:57;101585.86;;;18.16;90.70
56070;BME280;41944;52.078;-0.058;2023-06-22T01:46:25;101583.75;;;18.09;91.28
56070;BME280;41944;52.078;-0.058;2023-06-22T01:48:52;101584.14;;;18.05;91.55
56070;BME280;41944;52.078;-0.058;2023-06-22T01:51:19;101581.32;;;17.96;92.03
56070;BME280;41944;52.078;-0.058;2023-06-22T01:53:47;101583.05;;;17.93;92.25
56070;BME280;41944;52.078;-0.058;2023-06-22T01:56:16;101581.89;;;17.92;92.19
56070;BME280;41944;52.078;-0.058;2023-06-22T01:58:49;101582.76;;;17.86;92.44
56070;BME280;41944;52.078;-0.058;2023-06-22T02:01:23;101582.07;;;17.83;92.78
56070;BME280;41944;52.078;-0.058;2023-06-22T02:03:59;101577.93;;;17.80;92.95
56070;BME280;41944;52.078;-0.058;2023-06-22T02:06:33;101578.84;;;17.80;93.01
56070;BME280;41944;52.078;-0.058;2023-06-22T02:09:12;101578.79;;;17.72;93.74
56070;BME280;41944;52.078;-0.058;2023-06-22T02:11:43;101578.73;;;17.71;93.61
56070;BME280;41944;52.078;-0.058;2023-06-22T02:14:12;101578.97;;;17.67;94.12
56070;BME280;41944;52.078;-0.058;2023-06-22T02:16:42;101576.11;;;17.68;94.27
56070;BME280;41944;52.078;-0.058;2023-06-22T02:19:09;101574.89;;;17.66;94.58
56070;BME280;41944;52.078;-0.058;2023-06-22T02:21:36;101573.72;;;17.72;94.15
56070;BME280;41944;52.078;-0.058;2023-06-22T02:24:04;101569.36;;;17.71;94.37
56070;BME280;41944;52.078;-0.058;2023-06-22T02:26:31;101563.83;;;17.70;94.22
56070;BME280;41944;52.078;-0.058;2023-06-22T02:28:58;101564.84;;;17.81;93.71
56070;BME280;41944;52.078;-0.058;2023-06-22T02:31:26;101570.04;;;18.13;92.06
56070;BME280;41944;52.078;-0.058;2023-06-22T02:33:53;101572.45;;;18.18;90.73
56070;BME280;41944;52.078;-0.058;2023-06-22T02:36:20;101570.52;;;18.03;91.63
56070;BME280;41944;52.078;-0.058;2023-06-22T02:38:47;101567.52;;;17.91;91.70
56070;BME280;41944;52.078;-0.058;2023-06-22T02:41:15;101569.27;;;17.72;92.66
56070;BME280;41944;52.078;-0.058;2023-06-22T02:43:42;101568.41;;;17.59;93.52
56070;BME280;41944;52.078;-0.058;2023-06-22T02:46:09;101566.02;;;17.57;93.83
56070;BME280;41944;52.078;-0.058;2023-06-22T02:48:35;101569.79;;;17.52;94.08
56070;BME280;41944;52.078;-0.058;2023-06-22T02:51:03;101573.42;;;17.46;94.37
56070;BME280;41944;52.078;-0.058;2023-06-22T02:53:31;101576.60;;;17.39;94.28
56070;BME280;41944;52.078;-0.058;2023-06-22T02:55:58;101579.20;;;17.36;94.23
56070;BME280;41944;52.078;-0.058;2023-06-22T02:58:25;101576.41;;;17.30;94.40
56070;BME280;41944;52.078;-0.058;2023-06-22T03:00:52;101576.89;;;17.27;94.54
56070;BME280;41944;52.078;-0.058;2023-06-22T03:03:19;101579.74;;;17.25;94.69
56070;BME280;41944;52.078;-0.058;2023-06-22T03:05:46;101579.41;;;17.25;94.28
56070;BME280;41944;52.078;-0.058;2023-06-22T03:08:14;101580.66;;;17.17;94.54
56070;BME280;41944;52.078;-0.058;2023-06-22T03:10:41;101580.52;;;17.09;95.23
56070;BME280;41944;52.078;-0.058;2023-06-22T03:13:08;101581.67;;;17.03;95.43
56070;BME280;41944;52.078;-0.058;2023-06-22T03:15:36;101582.67;;;17.07;95.77
56070;BME280;41944;52.078;-0.058;2023-06-22T03:18:04;101581.26;;;17.08;95.76
56070;BME280;41944;52.078;-0.058;2023-06-22T03:20:31;101578.60;;;17.12;95.56
56070;BME280;41944;52.078;-0.058;2023-06-22T03:22:57;101580.74;;;17.10;95.36
56070;BME280;41944;52.078;-0.058;2023-06-22T03:25:24;101585.31;;;17.03;95.47
56070;BME280;41944;52.078;-0.058;2023-06-22T03:27:51;101588.30;;;17.09;95.93
56070;BME280;41944;52.078;-0.058;2023-06-22T03:30:18;101583.93;;;17.21;95.51
56070;BME280;41944;52.078;-0.058;2023-06-22T03:32:45;101577.86;;;17.28;94.83
56070;BME280;41944;52.078;-0.058;2023-06-22T03:35:12;101576.66;;;17.26;94.83
56070;BME280;41944;52.078;-0.058;2023-06-22T03:37:40;101570.67;;;17.46;93.56
56070;BME280;41944;52.078;-0.058;2023-06-22T03:40:08;101575.60;;;17.40;93.62
56070;BME280;41944;52.078;-0.058;2023-06-22T03:42:36;101576.69;;;17.24;94.76
56070;BME280;41944;52.078;-0.058;2023-06-22T03:45:04;101576.37;;;17.26;95.17
56070;BME280;41944;52.078;-0.058;2023-06-22T03:47:32;101574.98;;;17.20;95.20
56070;BME280;41944;52.078;-0.058;2023-06-22T03:49:59;101572.73;;;17.14;95.28
56070;BME280;41944;52.078;-0.058;2023-06-22T03:52:26;101569.15;;;17.08;95.34
56070;BME280;41944;52.078;-0.058;2023-06-22T03:54:53;101567.59;;;17.08;95.47
56070;BME280;41944;52.078;-0.058;2023-06-22T03:57:20;101565.06;;;17.15;94.91
56070;BME280;41944;52.078;-0.058;2023-06-22T03:59:48;101564.10;;;17.09;95.40
56070;BME280;41944;52.078;-0.058;2023-06-22T04:02:15;101562.18;;;17.02;95.89
56070;BME280;41944;52.078;-0.058;2023-06-22T04:04:42;101560.73;;;17.05;95.62
56070;BME280;41944;52.078;-0.058;2023-06-22T04:07:10;101560.56;;;17.03;95.90
56070;BME280;41944;52.078;-0.058;2023-06-22T04:09:36;101558.85;;;16.98;96.60
56070;BME280;41944;52.078;-0.058;2023-06-22T04:12:04;101558.02;;;16.99;96.94
56070;BME280;41944;52.078;-0.058;2023-06-22T04:14:32;101554.84;;;17.08;96.39
56070;BME280;41944;52.078;-0.058;2023-06-22T04:16:59;101557.31;;;17.06;96.76
56070;BME280;41944;52.078;-0.058;2023-06-22T04:19:26;101557.03;;;17.07;97.02
56070;BME280;41944;52.078;-0.058;2023-06-22T04:21:53;101560.68;;;17.15;96.94
56070;BME280;41944;52.078;-0.058;2023-06-22T04:24:20;101562.76;;;17.12;96.92
56070;BME280;41944;52.078;-0.058;2023-06-22T04:26:47;101566.60;;;17.16;96.41
56070;BME280;41944;52.078;-0.058;2023-06-22T04:29:14;101563.97;;;17.13;96.76
56070;BME280;41944;52.078;-0.058;2023-06-22T04:31:41;101560.39;;;17.25;96.21
56070;BME280;41944;52.078;-0.058;2023-06-22T04:34:09;101559.18;;;17.25;96.20
56070;BME280;41944;52.078;-0.058;2023-06-22T04:36:38;101558.42;;;17.32;95.79
56070;BME280;41944;52.078;-0.058;2023-06-22T04:39:06;101561.18;;;17.38;95.23
56070;BME280;41944;52.078;-0.058;2023-06-22T04:41:34;101560.70;;;17.64;93.92
56070;BME280;41944;52.078;-0.058;2023-06-22T04:44:01;101560.12;;;17.76;92.31
56070;BME280;41944;52.078;-0.058;2023-06-22T04:46:28;101559.48;;;17.75;91.87
56070;BME280;41944;52.078;-0.058;2023-06-22T04:48:55;101563.63;;;17.96;90.76
56070;BME280;41944;52.078;-0.058;2023-06-22T04:51:22;101562.68;;;18.16;89.57
56070;BME280;41944;52.078;-0.058;2023-06-22T04:53:49;101564.35;;;18.22;88.48
56070;BME280;41944;52.078;-0.058;2023-06-22T04:56:16;101563.67;;;17.92;90.38
56070;BME280;41944;52.078;-0.058;2023-06-22T04:58:43;101561.73;;;17.96;90.92
56070;BME280;41944;52.078;-0.058;2023-06-22T05:01:09;101560.19;;;17.97;90.61
56070;BME280;41944;52.078;-0.058;2023-06-22T05:03:36;101562.93;;;18.11;89.83
56070;BME280;41944;52.078;-0.058;2023-06-22T05:06:04;101564.04;;;17.95;90.65
56070;BME280;41944;52.078;-0.058;2023-06-22T05:08:31;101565.62;;;18.09;90.21
56070;BME280;41944;52.078;-0.058;2023-06-22T05:10:57;101568.11;;;18.04;90.88
56070;BME280;41944;52.078;-0.058;2023-06-22T05:13:25;101569.26;;;18.09;91.02
56070;BME280;41944;52.078;-0.058;2023-06-22T05:15:52;101572.35;;;18.06;91.67
56070;BME280;41944;52.078;-0.058;2023-06-22T05:18:19;101572.09;;;18.08;91.76
56070;BME280;41944;52.078;-0.058;2023-06-22T05:20:46;101574.02;;;18.25;91.76
56070;BME280;41944;52.078;-0.058;2023-06-22T05:23:14;101574.57;;;18.36;91.15
56070;BME280;41944;52.078;-0.058;2023-06-22T05:25:51;101572.54;;;18.46;91.12
56070;BME280;41944;52.078;-0.058;2023-06-22T05:28:19;101575.49;;;18.69;90.35
56070;BME280;41944;52.078;-0.058;2023-06-22T05:30:46;101578.30;;;18.79;89.67
56070;BME280;41944;52.078;-0.058;2023-06-22T05:33:13;101581.39;;;18.94;89.61
56070;BME280;41944;52.078;-0.058;2023-06-22T05:35:40;101582.34;;;19.06;89.81
56070;BME280;41944;52.078;-0.058;2023-06-22T05:38:07;101581.71;;;19.30;87.98
56070;BME280;41944;52.078;-0.058;2023-06-22T05:40:34;101582.64;;;19.43;87.58
56070;BME280;41944;52.078;-0.058;2023-06-22T05:43:01;101588.45;;;19.57;86.70
56070;BME280;41944;52.078;-0.058;2023-06-22T05:45:29;101587.92;;;19.67;86.49
56070;BME280;41944;52.078;-0.058;2023-06-22T05:47:56;101595.60;;;19.96;84.28
56070;BME280;41944;52.078;-0.058;2023-06-22T05:50:23;101593.35;;;19.85;85.09
56070;BME280;41944;52.078;-0.058;2023-06-22T05:52:50;101593.67;;;19.89;85.28
56070;BME280;41944;52.078;-0.058;2023-06-22T05:55:17;101590.74;;;19.87;85.57
56070;BME280;41944;52.078;-0.058;2023-06-22T05:57:45;101599.16;;;20.07;84.40
56070;BME280;41944;52.078;-0.058;2023-06-22T06:00:13;101606.90;;;20.31;82.83
56070;BME280;41944;52.078;-0.058;2023-06-22T06:02:40;101612.35;;;20.25;83.89
56070;BME280;41944;52.078;-0.058;2023-06-22T06:05:07;101612.19;;;20.40;83.36
56070;BME280;41944;52.078;-0.058;2023-06-22T06:07:34;101609.94;;;20.32;83.88
56070;BME280;41944;52.078;-0.058;2023-06-22T06:10:03;101605.19;;;20.40;83.13
56070;BME280;41944;52.078;-0.058;2023-06-22T06:12:30;101603.16;;;20.37;83.57
56070;BME280;41944;52.078;-0.058;2023-06-22T06:14:57;101599.23;;;20.33;83.64
56070;BME280;41944;52.078;-0.058;2023-06-22T06:17:23;101593.91;;;20.19;84.94
56070;BME280;41944;52.078;-0.058;2023-06-22T06:19:50;101591.62;;;20.18;84.88
56070;BME280;41944;52.078;-0.058;2023-06-22T06:22:17;101590.24;;;20.12;85.75
56070;BME280;41944;52.078;-0.058;2023-06-22T06:24:44;101592.43;;;20.06;86.55
56070;BME280;41944;52.078;-0.058;2023-06-22T06:27:11;101590.16;;;20.03;86.74
56070;BME280;41944;52.078;-0.058;2023-06-22T06:29:38;101591.83;;;20.24;85.61
56070;BME280;41944;52.078;-0.058;2023-06-22T06:32:05;101591.96;;;20.37;84.55
56070;BME280;41944;52.078;-0.058;2023-06-22T06:34:32;101598.72;;;20.52;83.66
56070;BME280;41944;52.078;-0.058;2023-06-22T06:36:59;101598.89;;;20.77;81.89
56070;BME280;41944;52.078;-0.058;2023-06-22T06:39:27;101603.67;;;20.69;82.26
56070;BME280;41944;52.078;-0.058;2023-06-22T06:41:54;101600.07;;;20.71;82.19
56070;BME280;41944;52.078;-0.058;2023-06-22T06:44:21;101598.01;;;20.85;81.03
56070;BME280;41944;52.078;-0.058;2023-06-22T06:46:49;101594.36;;;20.86;80.98
56070;BME280;41944;52.078;-0.058;2023-06-22T06:49:16;101589.54;;;21.02;81.26
56070;BME280;41944;52.078;-0.058;2023-06-22T06:51:43;101589.14;;;21.12;81.35
56070;BME280;41944;52.078;-0.058;2023-06-22T06:54:10;101590.18;;;21.30;80.05
56070;BME280;41944;52.078;-0.058;2023-06-22T06:56:37;101591.50;;;21.60;78.93
56070;BME280;41944;52.078;-0.058;2023-06-22T06:59:04;101583.40;;;21.72;78.31
56070;BME280;41944;52.078;-0.058;2023-06-22T07:01:32;101584.53;;;21.87;77.53
56070;BME280;41944;52.078;-0.058;2023-06-22T07:03:59;101585.18;;;21.89;76.91
56070;BME280;41944;52.078;-0.058;2023-06-22T07:06:27;101588.65;;;21.97;77.13
56070;BME280;41944;52.078;-0.058;2023-06-22T07:08:53;101591.13;;;22.03;77.47
56070;BME280;41944;52.078;-0.058;2023-06-22T07:11:21;101589.46;;;22.09;76.91
56070;BME280;41944;52.078;-0.058;2023-06-22T07:13:48;101589.00;;;22.20;77.03
56070;BME280;41944;52.078;-0.058;2023-06-22T07:16:15;101592.82;;;22.32;76.83
56070;BME280;41944;52.078;-0.058;2023-06-22T07:18:42;101591.91;;;22.44;75.47
56070;BME280;41944;52.078;-0.058;2023-06-22T07:21:09;101591.90;;;22.54;75.63
56070;BME280;41944;52.078;-0.058;2023-06-22T07:23:36;101587.76;;;22.74;75.20
56070;BME280;41944;52.078;-0.058;2023-06-22T07:26:03;101587.87;;;22.68;75.76
56070;BME280;41944;52.078;-0.058;2023-06-22T07:28:31;101586.19;;;22.83;75.51
56070;BME280;41944;52.078;-0.058;2023-06-22T07:30:58;101592.51;;;23.06;73.67
56070;BME280;41944;52.078;-0.058;2023-06-22T07:33:25;101588.64;;;23.06;74.14
56070;BME280;41944;52.078;-0.058;2023-06-22T07:35:52;101581.79;;;23.07;73.72
56070;BME280;41944;52.078;-0.058;2023-06-22T07:38:19;101577.75;;;22.96;74.98
56070;BME280;41944;52.078;-0.058;2023-06-22T07:40:46;101574.56;;;23.13;74.43
56070;BME280;41944;52.078;-0.058;2023-06-22T07:43:14;101573.67;;;23.14;73.63
56070;BME280;41944;52.078;-0.058;2023-06-22T07:45:48;101575.72;;;23.27;73.54
56070;BME280;41944;52.078;-0.058;2023-06-22T07:48:15;101569.83;;;23.23;74.14
56070;BME280;41944;52.078;-0.058;2023-06-22T07:50:42;101570.55;;;23.35;74.72
56070;BME280;41944;52.078;-0.058;2023-06-22T07:53:10;101571.62;;;23.46;72.58
56070;BME280;41944;52.078;-0.058;2023-06-22T07:55:36;101568.44;;;23.51;73.27
56070;BME280;41944;52.078;-0.058;2023-06-22T07:58:04;101565.87;;;23.67;70.87
56070;BME280;41944;52.078;-0.058;2023-06-22T08:00:34;101566.29;;;23.62;71.26
56070;BME280;41944;52.078;-0.058;2023-06-22T08:03:01;101563.24;;;23.81;70.58
56070;BME280;41944;52.078;-0.058;2023-06-22T08:05:28;101562.57;;;23.82;71.05
56070;BME280;41944;52.078;-0.058;2023-06-22T08:07:56;101564.76;;;24.01;69.57
56070;BME280;41944;52.078;-0.058;2023-06-22T08:10:24;101566.71;;;24.34;67.66
56070;BME280;41944;52.078;-0.058;2023-06-22T08:12:51;101565.40;;;24.24;69.08
56070;BME280;41944;52.078;-0.058;2023-06-22T08:15:18;101559.85;;;24.34;68.53
56070;BME280;41944;52.078;-0.058;2023-06-22T08:17:45;101559.26;;;24.43;68.65
56070;BME280;41944;52.078;-0.058;2023-06-22T08:20:17;101557.76;;;24.44;67.97
56070;BME280;41944;52.078;-0.058;2023-06-22T08:22:44;101561.71;;;24.63;67.30
56070;BME280;41944;52.078;-0.058;2023-06-22T08:25:12;101558.23;;;24.81;66.30
56070;BME280;41944;52.078;-0.058;2023-06-22T08:27:39;101555.40;;;24.77;64.23
56070;BME280;41944;52.078;-0.058;2023-06-22T08:30:16;101549.19;;;24.83;64.34
56070;BME280;41944;52.078;-0.058;2023-06-22T08:32:44;101546.14;;;24.94;63.00
56070;BME280;41944;52.078;-0.058;2023-06-22T08:35:10;101542.87;;;25.02;63.53
56070;BME280;41944;52.078;-0.058;2023-06-22T08:37:37;101543.66;;;24.99;63.07
56070;BME280;41944;52.078;-0.058;2023-06-22T08:40:06;101538.20;;;25.02;63.02
56070;BME280;41944;52.078;-0.058;2023-06-22T08:42:34;101547.12;;;24.99;63.25
56070;BME280;41944;52.078;-0.058;2023-06-22T08:45:01;101544.60;;;25.22;59.33
56070;BME280;41944;52.078;-0.058;2023-06-22T08:47:28;101540.87;;;25.15;59.47
56070;BME280;41944;52.078;-0.058;2023-06-22T08:50:00;101539.18;;;25.30;58.83
56070;BME280;41944;52.078;-0.058;2023-06-22T08:52:27;101542.32;;;25.45;59.73
56070;BME280;41944;52.078;-0.058;2023-06-22T08:54:54;101544.81;;;25.60;58.72
56070;BME280;41944;52.078;-0.058;2023-06-22T08:57:21;101538.50;;;25.62;59.35
56070;BME280;41944;52.078;-0.058;2023-06-22T08:59:49;101535.58;;;25.77;58.71
56070;BME280;41944;52.078;-0.058;2023-06-22T09:02:16;101541.98;;;25.89;58.70
56070;BME280;41944;52.078;-0.058;2023-06-22T09:04:42;101541.33;;;25.99;58.88
56070;BME280;41944;52.078;-0.058;2023-06-22T09:07:09;101544.47;;;26.01;57.16
56070;BME280;41944;52.078;-0.058;2023-06-22T09:09:36;101539.18;;;25.71;58.01
56070;BME280;41944;52.078;-0.058;2023-06-22T09:12:04;101543.87;;;25.97;57.10
56070;BME280;41944;52.078;-0.058;2023-06-22T09:14:32;101546.72;;;26.18;55.73
56070;BME280;41944;52.078;-0.058;2023-06-22T09:16:59;101548.68;;;26.10;55.59
56070;BME280;41944;52.078;-0.058;2023-06-22T09:19:25;101549.29;;;26.04;55.11
56070;BME280;41944;52.078;-0.058;2023-06-22T09:21:53;101553.85;;;26.20;55.02
56070;BME280;41944;52.078;-0.058;2023-06-22T09:24:25;101556.65;;;26.16;53.38
56070;BME280;41944;52.078;-0.058;2023-06-22T09:27:03;101558.45;;;26.47;52.65
56070;BME280;41944;52.078;-0.058;2023-06-22T09:29:30;101556.56;;;26.57;52.81
56070;BME280;41944;52.078;-0.058;2023-06-22T09:31:57;101553.94;;;26.55;53.61
56070;BME280;41944;52.078;-0.058;2023-06-22T09:34:24;101558.50;;;26.76;54.34
56070;BME280;41944;52.078;-0.058;2023-06-22T09:36:50;101556.14;;;26.98;53.87
56070;BME280;41944;52.078;-0.058;2023-06-22T09:39:18;101555.73;;;26.88;54.65
56070;BME280;41944;52.078;-0.058;2023-06-22T09:41:45;101559.71;;;26.98;52.03
56070;BME280;41944;52.078;-0.058;2023-06-22T09:44:12;101560.40;;;27.06;51.88
56070;BME280;41944;52.078;-0.058;2023-06-22T09:46:39;101560.86;;;27.26;51.44
56070;BME280;41944;52.078;-0.058;2023-06-22T09:49:06;101561.83;;;27.05;52.74
56070;BME280;41944;52.078;-0.058;2023-06-22T09:51:33;101559.21;;;27.34;52.10
56070;BME280;41944;52.078;-0.058;2023-06-22T09:53:59;101561.51;;;27.66;51.43
56070;BME280;41944;52.078;-0.058;2023-06-22T09:56:26;101563.47;;;27.96;49.37
56070;BME280;41944;52.078;-0.058;2023-06-22T09:58:53;101564.94;;;27.92;47.37
56070;BME280;41944;52.078;-0.058;2023-06-22T10:01:20;101567.58;;;28.05;48.14
56070;BME280;41944;52.078;-0.058;2023-06-22T10:03:47;101570.49;;;28.35;48.40
56070;BME280;41944;52.078;-0.058;2023-06-22T10:06:14;101570.33;;;28.38;48.18
56070;BME280;41944;52.078;-0.058;2023-06-22T10:08:41;101566.72;;;28.44;48.01
56070;BME280;41944;52.078;-0.058;2023-06-22T10:11:07;101569.28;;;28.76;47.49
56070;BME280;41944;52.078;-0.058;2023-06-22T10:13:34;101565.40;;;28.92;46.59
56070;BME280;41944;52.078;-0.058;2023-06-22T10:16:02;101563.25;;;29.06;46.26
56070;BME280;41944;52.078;-0.058;2023-06-22T10:18:30;101562.55;;;28.92;47.29
56070;BME280;41944;52.078;-0.058;2023-06-22T10:20:57;101564.24;;;29.08;47.38
56070;BME280;41944;52.078;-0.058;2023-06-22T10:23:24;101565.22;;;29.32;46.42
56070;BME280;41944;52.078;-0.058;2023-06-22T10:25:51;101562.66;;;29.30;47.03
56070;BME280;41944;52.078;-0.058;2023-06-22T10:28:18;101564.83;;;29.25;46.74
56070;BME280;41944;52.078;-0.058;2023-06-22T10:30:45;101563.76;;;29.21;46.22
56070;BME280;41944;52.078;-0.058;2023-06-22T10:33:12;101560.54;;;28.82;47.91
56070;BME280;41944;52.078;-0.058;2023-06-22T10:35:53;101556.61;;;29.10;47.79
56070;BME280;41944;52.078;-0.058;2023-06-22T10:38:24;101553.64;;;29.06;46.36
56070;BME280;41944;52.078;-0.058;2023-06-22T10:40:51;101545.65;;;29.24;45.48
56070;BME280;41944;52.078;-0.058;2023-06-22T10:43:19;101551.21;;;29.40;45.87
56070;BME280;41944;52.078;-0.058;2023-06-22T10:45:46;101544.19;;;29.32;45.10
56070;BME280;41944;52.078;-0.058;2023-06-22T10:48:14;101547.46;;;29.32;46.04
56070;BME280;41944;52.078;-0.058;2023-06-22T10:50:41;101543.57;;;29.31;46.27
56070;BME280;41944;52.078;-0.058;2023-06-22T10:53:08;101542.06;;;29.55;45.67
56070;BME280;41944;52.078;-0.058;2023-06-22T10:55:35;101538.80;;;29.54;45.46
56070;BME280;41944;52.078;-0.058;2023-06-22T10:58:02;101545.07;;;29.65;45.25
56070;BME280;41944;52.078;-0.058;2023-06-22T11:00:29;101543.26;;;29.50;45.65
56070;BME280;41944;52.078;-0.058;2023-06-22T11:02:56;101538.52;;;29.45;45.60
56070;BME280;41944;52.078;-0.058;2023-06-22T11:05:23;101539.65;;;29.29;45.19
56070;BME280;41944;52.078;-0.058;2023-06-22T11:07:50;101540.53;;;29.33;44.82
56070;BME280;41944;52.078;-0.058;2023-06-22T11:10:17;101545.18;;;29.00;45.61
56070;BME280;41944;52.078;-0.058;2023-06-22T11:12:44;101542.52;;;28.97;46.07
56070;BME280;41944;52.078;-0.058;2023-06-22T11:15:11;101543.48;;;29.03;44.72
56070;BME280;41944;52.078;-0.058;2023-06-22T11:17:37;101541.95;;;29.19;45.38
56070;BME280;41944;52.078;-0.058;2023-06-22T11:20:06;101533.33;;;29.31;45.53
56070;BME280;41944;52.078;-0.058;2023-06-22T11:22:33;101545.54;;;28.88;46.52
56070;BME280;41944;52.078;-0.058;2023-06-22T11:25:00;101546.76;;;28.57;47.06
56070;BME280;41944;52.078;-0.058;2023-06-22T11:27:27;101548.27;;;28.68;47.45
56070;BME280;41944;52.078;-0.058;2023-06-22T11:29:54;101542.83;;;28.90;47.19
56070;BME280;41944;52.078;-0.058;2023-06-22T11:32:22;101543.14;;;29.04;47.13
56070;BME280;41944;52.078;-0.058;2023-06-22T11:34:49;101533.99;;;29.32;45.49
56070;BME280;41944;52.078;-0.058;2023-06-22T11:37:16;101538.01;;;29.46;43.70
56070;BME280;41944;52.078;-0.058;2023-06-22T11:39:43;101537.37;;;29.52;44.03
56070;BME280;41944;52.078;-0.058;2023-06-22T11:42:09;101538.91;;;29.52;44.16
56070;BME280;41944;52.078;-0.058;2023-06-22T11:44:36;101535.97;;;29.45;45.43
56070;BME280;41944;52.078;-0.058;2023-06-22T11:47:04;101529.85;;;29.35;45.61
56070;BME280;41944;52.078;-0.058;2023-06-22T11:49:31;101531.29;;;29.27;45.36
56070;BME280;41944;52.078;-0.058;2023-06-22T11:51:58;101527.44;;;29.14;45.23
56070;BME280;41944;52.078;-0.058;2023-06-22T11:54:25;101526.09;;;29.04;44.92
56070;BME280;41944;52.078;-0.058;2023-06-22T11:56:51;101532.38;;;29.14;45.03
56070;BME280;41944;52.078;-0.058;2023-06-22T11:59:18;101526.04;;;29.19;44.89
56070;BME280;41944;52.078;-0.058;2023-06-22T12:01:46;101534.98;;;29.03;44.92
56070;BME280;41944;52.078;-0.058;2023-06-22T12:04:14;101533.09;;;28.78;44.60
56070;BME280;41944;52.078;-0.058;2023-06-22T12:06:41;101531.44;;;29.02;43.20
56070;BME280;41944;52.078;-0.058;2023-06-22T12:09:08;101521.58;;;29.30;43.37
56070;BME280;41944;52.078;-0.058;2023-06-22T12:11:35;101519.06;;;29.65;44.02
56070;BME280;41944;52.078;-0.058;2023-06-22T12:14:03;101516.76;;;30.02;42.28
56070;BME280;41944;52.078;-0.058;2023-06-22T12:16:31;101515.74;;;30.12;42.12
56070;BME280;41944;52.078;-0.058;2023-06-22T12:18:57;101514.79;;;30.30;41.31
56070;BME280;41944;52.078;-0.058;2023-06-22T12:21:24;101514.83;;;30.40;41.69
56070;BME280;41944;52.078;-0.058;2023-06-22T12:23:51;101510.90;;;30.49;41.14
56070;BME280;41944;52.078;-0.058;2023-06-22T12:26:18;101508.16;;;30.32;41.59
56070;BME280;41944;52.078;-0.058;2023-06-22T12:28:45;101508.73;;;30.33;41.49
56070;BME280;41944;52.078;-0.058;2023-06-22T12:31:12;101507.85;;;30.25;41.76
56070;BME280;41944;52.078;-0.058;2023-06-22T12:33:39;101507.33;;;30.36;41.92
56070;BME280;41944;52.078;-0.058;2023-06-22T12:36:06;101507.42;;;30.63;40.16
56070;BME280;41944;52.078;-0.058;2023-06-22T12:38:32;101507.06;;;30.84;40.19
56070;BME280;41944;52.078;-0.058;2023-06-22T12:40:59;101504.13;;;30.64;40.11
56070;BME280;41944;52.078;-0.058;2023-06-22T12:43:26;101502.51;;;30.79;39.81